createdAt,value
2018-10-21T00:04:13.424Z,1023.90
2018-10-21T00:09:08.989Z,1023.82
2018-10-21T00:14:05.388Z,1023.68
2018-10-21T00:19:01.122Z,1023.65
2018-10-21T00:23:56.943Z,1023.72
2018-10-21T00:28:52.379Z,1023.64
2018-10-21T00:33:48.298Z,1023.67
2018-10-21T00:38:44.197Z,1023.70
2018-10-21T00:43:39.612Z,1023.61
2018-10-21T00:48:35.409Z,1023.60
2018-10-21T00:53:31.000Z,1023.66
2018-10-21T00:58:26.826Z,1023.68
2018-10-21T01:03:22.503Z,1023.60
2018-10-21T01:08:18.361Z,1023.56
2018-10-21T01:13:14.789Z,1023.51
2018-10-21T01:18:10.166Z,1023.67
2018-10-21T01:23:05.899Z,1023.71
2018-10-21T01:28:03.135Z,1023.62
2018-10-21T01:32:59.540Z,1023.61
2018-10-21T01:37:56.000Z,1023.62
2018-10-21T01:42:52.119Z,1023.63
2018-10-21T01:47:47.754Z,1023.57
2018-10-21T01:52:43.568Z,1023.68
2018-10-21T01:57:40.226Z,1023.76
2018-10-21T02:02:35.705Z,1023.70
2018-10-21T02:07:31.349Z,1023.61
2018-10-21T02:12:29.572Z,1023.59
2018-10-21T02:17:25.097Z,1023.56
2018-10-21T02:22:21.773Z,1023.58
2018-10-21T02:27:18.004Z,1023.52
2018-10-21T02:32:13.796Z,1023.52
2018-10-21T02:37:10.807Z,1023.44
2018-10-21T02:42:07.320Z,1023.45
2018-10-21T02:47:02.981Z,1023.40
2018-10-21T02:51:59.479Z,1023.33
2018-10-21T02:56:56.202Z,1023.29
2018-10-21T03:01:51.804Z,1023.28
2018-10-21T03:06:47.409Z,1023.36
2018-10-21T03:11:43.464Z,1023.45
2018-10-21T03:16:39.208Z,1023.40
2018-10-21T03:21:35.265Z,1023.35
2018-10-21T03:26:30.810Z,1023.34
2018-10-21T03:31:26.522Z,1023.40
2018-10-21T03:36:22.348Z,1023.37
2018-10-21T03:41:18.040Z,1023.37
2018-10-21T03:46:14.676Z,1023.22
2018-10-21T03:51:10.435Z,1023.14
2018-10-21T03:56:07.069Z,1023.15
2018-10-21T04:01:03.622Z,1023.08
2018-10-21T04:06:00.320Z,1023.09
2018-10-21T04:10:55.753Z,1023.09
2018-10-21T04:15:51.618Z,1023.09
2018-10-21T04:20:48.084Z,1022.99
2018-10-21T04:25:43.680Z,1023.07
2018-10-21T04:30:40.685Z,1023.04
2018-10-21T04:35:36.398Z,1023.11
2018-10-21T04:40:32.009Z,1023.13
2018-10-21T04:45:27.695Z,1022.96
2018-10-21T04:50:23.477Z,1022.92
2018-10-21T04:55:19.016Z,1022.89
2018-10-21T05:00:14.647Z,1022.91
2018-10-21T05:05:11.004Z,1022.91
2018-10-21T05:10:08.228Z,1022.86
2018-10-21T05:15:03.607Z,1022.95
2018-10-21T05:20:00.411Z,1022.99
2018-10-21T05:24:56.799Z,1022.82
2018-10-21T05:29:52.006Z,1022.79
2018-10-21T05:34:48.789Z,1022.71
2018-10-21T05:39:45.136Z,1022.67
2018-10-21T05:44:40.539Z,1022.78
2018-10-21T05:49:38.173Z,1022.83
2018-10-21T05:54:34.570Z,1022.80
2018-10-21T05:59:30.694Z,1022.83
2018-10-21T06:04:26.126Z,1022.95
2018-10-21T06:09:21.748Z,1022.89
2018-10-21T06:14:17.533Z,1023.07
2018-10-21T06:19:13.604Z,1023.14
2018-10-21T06:24:08.897Z,1023.18
2018-10-21T06:29:04.832Z,1023.26
2018-10-21T06:34:00.494Z,1023.33
2018-10-21T06:38:57.097Z,1023.28
2018-10-21T06:43:52.749Z,1023.28
2018-10-21T06:48:49.693Z,1023.37
2018-10-21T06:53:45.161Z,1023.34
2018-10-21T06:58:41.688Z,1023.38
2018-10-21T07:03:37.767Z,1023.37
2018-10-21T07:08:33.346Z,1023.48
2018-10-21T07:13:29.179Z,1023.52
2018-10-21T07:18:26.087Z,1023.41
2018-10-21T07:23:21.618Z,1023.40
2018-10-21T07:28:17.627Z,1023.38
2018-10-21T07:33:15.703Z,1023.47
2018-10-21T07:38:11.811Z,1023.44
2018-10-21T07:43:08.216Z,1023.44
2018-10-21T07:48:03.757Z,1023.57
2018-10-21T07:53:00.378Z,1023.67
2018-10-21T07:57:56.353Z,1023.65
2018-10-21T08:02:53.534Z,1023.65
2018-10-21T08:07:49.090Z,1023.61
2018-10-21T08:12:44.985Z,1023.66
2018-10-21T08:17:41.205Z,1023.70
2018-10-21T08:22:37.199Z,1023.75
2018-10-21T08:27:34.268Z,1023.78
2018-10-21T08:32:31.081Z,1023.81
2018-10-21T08:37:26.702Z,1023.81
2018-10-21T08:42:23.833Z,1023.79
2018-10-21T08:47:20.561Z,1023.83
2018-10-21T08:52:16.096Z,1023.86
2018-10-21T08:57:13.116Z,1023.84
2018-10-21T09:02:08.659Z,1023.65
2018-10-21T09:07:04.619Z,1023.74
2018-10-21T09:12:00.498Z,1023.78
2018-10-21T09:16:56.500Z,1023.70
2018-10-21T09:21:53.231Z,1023.65
2018-10-21T09:26:49.302Z,1023.69
2018-10-21T09:31:45.976Z,1023.61
2018-10-21T09:36:43.065Z,1023.63
2018-10-21T09:41:39.760Z,1023.65
2018-10-21T09:46:35.701Z,1023.54
2018-10-21T09:51:31.762Z,1023.51
2018-10-21T09:56:28.603Z,1023.45
2018-10-21T10:01:24.393Z,1023.52
2018-10-21T10:06:21.193Z,1023.49
2018-10-21T10:11:16.950Z,1023.45
2018-10-21T10:16:12.838Z,1023.35
2018-10-21T10:21:09.140Z,1023.27
2018-10-21T10:26:04.736Z,1023.14
2018-10-21T10:31:00.367Z,1023.26
2018-10-21T10:35:56.010Z,1023.11
2018-10-21T10:40:52.191Z,1023.07
2018-10-21T10:45:48.151Z,1022.92
2018-10-21T10:50:44.635Z,1022.91
2018-10-21T10:55:40.694Z,1022.95
2018-10-21T11:00:36.643Z,1022.83
2018-10-21T11:05:33.578Z,1022.79
2018-10-21T11:10:30.665Z,1022.67
2018-10-21T11:15:28.310Z,1022.55
2018-10-21T11:20:23.852Z,1022.56
2018-10-21T11:25:21.302Z,1022.39
2018-10-21T11:30:20.824Z,1022.37
2018-10-21T11:35:15.590Z,1022.40
2018-10-21T11:40:12.327Z,1022.43
2018-10-21T11:45:09.311Z,1022.26
2018-10-21T11:50:05.157Z,1022.32
2018-10-21T11:55:00.950Z,1022.18
2018-10-21T11:59:58.128Z,1022.08
2018-10-21T12:04:54.864Z,1022.00
2018-10-21T12:09:51.575Z,1021.96
2018-10-21T12:14:48.183Z,1022.02
2018-10-21T12:19:43.735Z,1021.92
2018-10-21T12:24:39.959Z,1021.88
2018-10-21T12:29:36.846Z,1021.80
2018-10-21T12:34:32.491Z,1021.80
2018-10-21T12:39:28.300Z,1021.63
2018-10-21T12:44:25.395Z,1021.63
2018-10-21T12:49:21.021Z,1021.66
2018-10-21T12:54:17.912Z,1021.51
2018-10-21T12:59:13.410Z,1021.55
2018-10-21T13:04:10.251Z,1021.42
2018-10-21T13:09:07.062Z,1021.39
2018-10-21T13:14:04.089Z,1021.30
2018-10-21T13:19:00.684Z,1021.29
2018-10-21T13:23:56.899Z,1021.19
2018-10-21T13:28:54.027Z,1021.19
2018-10-21T13:33:49.729Z,1021.15
2018-10-21T13:38:46.750Z,1021.15
2018-10-21T13:43:42.666Z,1021.10
2018-10-21T13:48:38.486Z,1021.02
2018-10-21T13:53:34.481Z,1020.98
2018-10-21T13:58:31.770Z,1021.01
2018-10-21T14:03:28.396Z,1020.89
2018-10-21T14:08:23.881Z,1020.74
2018-10-21T14:13:20.082Z,1020.73
2018-10-21T14:18:15.410Z,1020.70
2018-10-21T14:23:12.519Z,1020.76
2018-10-21T14:28:07.889Z,1020.72
2018-10-21T14:33:03.886Z,1020.67
2018-10-21T14:37:59.579Z,1020.56
2018-10-21T14:42:55.466Z,1020.67
2018-10-21T14:47:51.483Z,1020.55
2018-10-21T14:52:47.071Z,1020.45
2018-10-21T14:57:43.453Z,1020.52
2018-10-21T15:02:39.121Z,1020.43
2018-10-21T15:07:34.834Z,1020.44
2018-10-21T15:12:31.515Z,1020.30
2018-10-21T15:17:27.121Z,1020.24
2018-10-21T15:22:22.895Z,1020.24
2018-10-21T15:27:18.901Z,1020.18
2018-10-21T15:32:14.618Z,1020.16
2018-10-21T15:37:10.232Z,1020.14
2018-10-21T15:42:06.010Z,1020.10
2018-10-21T15:47:01.803Z,1020.06
2018-10-21T15:51:58.580Z,1020.16
2018-10-21T15:56:54.153Z,1020.17
2018-10-21T16:01:49.661Z,1020.11
2018-10-21T16:06:45.346Z,1020.06
2018-10-21T16:11:42.213Z,1020.06
2018-10-21T16:16:37.849Z,1020.08
2018-10-21T16:21:34.377Z,1020.04
2018-10-21T16:26:29.862Z,1020.09
2018-10-21T16:31:25.851Z,1020.04
2018-10-21T16:36:22.612Z,1020.06
2018-10-21T16:41:18.795Z,1019.97
2018-10-21T16:46:14.412Z,1020.10
2018-10-21T16:51:09.990Z,1019.96
2018-10-21T16:56:05.632Z,1020.04
2018-10-21T17:01:01.953Z,1020.11
2018-10-21T17:05:57.613Z,1020.04
2018-10-21T17:10:52.802Z,1020.06
2018-10-21T17:15:48.942Z,1020.07
2018-10-21T17:20:44.713Z,1020.13
2018-10-21T17:25:40.696Z,1020.16
2018-10-21T17:30:37.281Z,1020.18
2018-10-21T17:35:34.120Z,1020.18
2018-10-21T17:40:29.858Z,1020.20
2018-10-21T17:45:26.591Z,1020.22
2018-10-21T17:50:21.871Z,1020.26
2018-10-21T17:55:17.720Z,1020.25
2018-10-21T18:00:13.410Z,1020.23
2018-10-21T18:05:09.259Z,1020.20
2018-10-21T18:10:05.090Z,1020.12
2018-10-21T18:15:00.945Z,1020.15
2018-10-21T18:19:56.789Z,1020.17
2018-10-21T18:24:52.616Z,1020.26
2018-10-21T18:29:47.904Z,1020.21
2018-10-21T18:34:44.002Z,1020.22
2018-10-21T18:39:40.709Z,1020.22
2018-10-21T18:44:36.825Z,1020.16
2018-10-21T18:49:32.403Z,1020.12
2018-10-21T18:54:28.217Z,1020.19
2018-10-21T18:59:24.106Z,1020.14
2018-10-21T19:04:20.833Z,1020.17
2018-10-21T19:09:17.277Z,1020.09
2018-10-21T19:14:13.391Z,1020.17
2018-10-21T19:19:09.454Z,1020.18
2018-10-21T19:24:06.385Z,1020.10
2018-10-21T19:29:01.782Z,1020.14
2018-10-21T19:33:57.256Z,1020.16
2018-10-21T19:38:54.128Z,1020.18
2018-10-21T19:43:49.628Z,1020.15
2018-10-21T19:48:47.091Z,1020.19
2018-10-21T19:53:43.531Z,1020.16
2018-10-21T19:58:39.847Z,1020.24
2018-10-21T20:03:35.665Z,1020.21
2018-10-21T20:08:31.453Z,1020.25
2018-10-21T20:13:28.262Z,1020.18
2018-10-21T20:18:23.777Z,1020.27
2018-10-21T20:23:19.687Z,1020.20
2018-10-21T20:28:15.542Z,1020.27
2018-10-21T20:33:11.334Z,1020.19
2018-10-21T20:38:07.760Z,1020.17
2018-10-21T20:43:04.960Z,1020.19
2018-10-21T20:48:00.269Z,1020.18
2018-10-21T20:52:56.453Z,1020.22
2018-10-21T20:57:51.936Z,1020.23
2018-10-21T21:02:48.112Z,1020.34
2018-10-21T21:07:43.987Z,1020.36
2018-10-21T21:12:40.050Z,1020.48
2018-10-21T21:17:36.008Z,1020.49
2018-10-21T21:22:32.265Z,1020.48
2018-10-21T21:27:28.160Z,1020.37
2018-10-21T21:32:23.965Z,1020.42
2018-10-21T21:37:19.590Z,1020.47
2018-10-21T21:42:16.854Z,1020.56
2018-10-21T21:47:12.400Z,1020.51
2018-10-21T21:52:09.296Z,1020.51
2018-10-21T21:57:05.945Z,1020.61
2018-10-21T22:02:02.092Z,1020.52
2018-10-21T22:06:57.897Z,1020.52
2018-10-21T22:11:54.674Z,1020.44
2018-10-21T22:16:50.355Z,1020.40
2018-10-21T22:21:46.329Z,1020.40
2018-10-21T22:26:41.867Z,1020.34
2018-10-21T22:31:38.778Z,1020.39
2018-10-21T22:36:35.657Z,1020.37
2018-10-21T22:41:32.816Z,1020.30
2018-10-21T22:46:28.404Z,1020.30
2018-10-21T22:51:24.159Z,1020.29
2018-10-21T22:56:19.950Z,1020.28
2018-10-21T23:01:16.626Z,1020.32
2018-10-21T23:06:13.008Z,1020.38
2018-10-21T23:11:08.517Z,1020.39
2018-10-21T23:16:04.385Z,1020.58
2018-10-21T23:21:00.268Z,1020.52
2018-10-21T23:25:57.079Z,1020.55
2018-10-21T23:30:52.838Z,1020.60
2018-10-21T23:35:48.619Z,1020.59
2018-10-21T23:40:44.612Z,1020.49
2018-10-21T23:45:40.367Z,1020.43
2018-10-21T23:50:37.299Z,1020.33
2018-10-21T23:55:32.995Z,1020.35
